createdAt,value
2018-11-26T00:00:48.159Z,107.35
2018-11-26T00:03:15.724Z,109.40
2018-11-26T00:05:43.330Z,108.27
2018-11-26T00:08:11.437Z,106.60
2018-11-26T00:10:44.286Z,101.33
2018-11-26T00:13:12.024Z,103.90
2018-11-26T00:15:39.358Z,121.30
2018-11-26T00:18:06.679Z,116.22
2018-11-26T00:20:34.052Z,105.07
2018-11-26T00:23:02.472Z,109.52
2018-11-26T00:25:30.294Z,124.70
2018-11-26T00:27:57.901Z,120.42
2018-11-26T00:30:25.217Z,134.70
2018-11-26T00:32:52.924Z,122.00
2018-11-26T00:35:20.519Z,146.62
2018-11-26T00:37:48.382Z,140.07
2018-11-26T00:40:15.957Z,130.43
2018-11-26T00:42:43.277Z,144.95
2018-11-26T00:45:11.392Z,133.30
2018-11-26T00:47:39.294Z,139.88
2018-11-26T00:50:07.663Z,142.07
2018-11-26T00:52:35.221Z,132.95
2018-11-26T00:55:02.822Z,161.57
2018-11-26T00:57:30.140Z,145.95
2018-11-26T00:59:57.736Z,148.68
2018-11-26T01:02:25.127Z,147.17
2018-11-26T01:04:53.121Z,157.30
2018-11-26T01:07:20.462Z,151.40
2018-11-26T01:09:48.079Z,138.40
2018-11-26T01:12:15.663Z,151.55
2018-11-26T01:14:43.048Z,143.40
2018-11-26T01:17:10.392Z,135.22
2018-11-26T01:19:37.733Z,156.00
2018-11-26T01:22:05.138Z,145.75
2018-11-26T01:24:32.811Z,143.90
2018-11-26T01:27:00.144Z,146.98
2018-11-26T01:29:28.311Z,151.35
2018-11-26T01:31:55.636Z,159.72
2018-11-26T01:34:23.256Z,151.47
2018-11-26T01:36:50.623Z,143.95
2018-11-26T01:39:18.185Z,146.62
2018-11-26T01:41:45.507Z,156.72
2018-11-26T01:44:13.084Z,136.45
2018-11-26T01:46:40.460Z,147.00
2018-11-26T01:49:08.271Z,139.60
2018-11-26T01:51:35.631Z,143.85
2018-11-26T01:54:03.629Z,131.35
2018-11-26T01:56:31.431Z,130.87
2018-11-26T01:58:58.986Z,146.10
2018-11-26T02:01:26.306Z,128.93
2018-11-26T02:03:53.687Z,127.65
2018-11-26T02:06:21.023Z,130.32
2018-11-26T02:08:48.385Z,130.87
2018-11-26T02:11:16.268Z,122.75
2018-11-26T02:13:43.828Z,136.47
2018-11-26T02:16:11.183Z,143.65
2018-11-26T02:18:38.879Z,126.85
2018-11-26T02:21:06.246Z,124.82
2018-11-26T02:23:33.558Z,131.32
2018-11-26T02:26:01.190Z,137.72
2018-11-26T02:28:28.784Z,141.57
2018-11-26T02:30:56.359Z,135.35
2018-11-26T02:33:23.707Z,145.47
2018-11-26T02:35:51.043Z,148.50
2018-11-26T02:38:18.394Z,140.65
2018-11-26T02:40:46.045Z,124.15
2018-11-26T02:43:14.013Z,139.45
2018-11-26T02:45:41.367Z,128.72
2018-11-26T02:48:08.689Z,128.18
2018-11-26T02:50:36.271Z,116.47
2018-11-26T02:53:03.689Z,122.13
2018-11-26T02:55:31.283Z,107.58
2018-11-26T02:57:59.179Z,115.22
2018-11-26T03:00:26.561Z,107.32
2018-11-26T03:02:54.361Z,109.42
2018-11-26T03:05:24.883Z,117.47
2018-11-26T03:07:52.543Z,103.92
2018-11-26T03:10:20.713Z,97.80
2018-11-26T03:12:48.319Z,93.07
2018-11-26T03:15:15.634Z,97.72
2018-11-26T03:17:42.997Z,96.20
2018-11-26T03:20:10.652Z,90.85
2018-11-26T03:22:38.261Z,89.15
2018-11-26T03:25:06.483Z,89.95
2018-11-26T03:27:33.845Z,97.02
2018-11-26T03:30:01.177Z,83.52
2018-11-26T03:32:28.732Z,85.87
2018-11-26T03:34:56.068Z,89.42
2018-11-26T03:37:23.935Z,83.52
2018-11-26T03:39:51.263Z,77.25
2018-11-26T03:42:18.830Z,88.37
2018-11-26T03:44:46.519Z,83.22
2018-11-26T03:47:13.834Z,77.90
2018-11-26T03:49:41.183Z,77.75
2018-11-26T03:52:09.029Z,82.65
2018-11-26T03:54:36.354Z,77.32
2018-11-26T03:57:03.921Z,77.80
2018-11-26T03:59:31.300Z,75.37
2018-11-26T04:01:58.895Z,75.85
2018-11-26T04:04:26.699Z,78.90
2018-11-26T04:06:54.085Z,75.25
2018-11-26T04:09:21.418Z,83.95
2018-11-26T04:11:49.482Z,71.92
2018-11-26T04:14:16.813Z,81.65
2018-11-26T04:16:44.464Z,79.72
2018-11-26T04:19:11.805Z,71.00
2018-11-26T04:21:39.214Z,74.60
2018-11-26T04:24:07.377Z,71.87
2018-11-26T04:26:34.934Z,75.20
2018-11-26T04:29:02.535Z,84.58
2018-11-26T04:31:30.051Z,74.62
2018-11-26T04:33:57.414Z,82.27
2018-11-26T04:36:24.790Z,77.15
2018-11-26T04:38:52.430Z,77.67
2018-11-26T04:41:20.250Z,73.07
2018-11-26T04:43:47.668Z,73.67
2018-11-26T04:46:15.135Z,83.45
2018-11-26T04:48:42.464Z,67.58
2018-11-26T04:51:10.038Z,74.45
2018-11-26T04:53:37.620Z,75.55
2018-11-26T04:56:05.237Z,78.72
2018-11-26T04:58:32.714Z,65.03
2018-11-26T05:01:00.303Z,80.12
2018-11-26T05:03:27.655Z,68.35
2018-11-26T05:05:54.992Z,74.42
2018-11-26T05:08:22.372Z,69.92
2018-11-26T05:10:49.700Z,66.35
2018-11-26T05:13:17.257Z,64.87
2018-11-26T05:15:44.621Z,69.20
2018-11-26T05:18:12.236Z,72.70
2018-11-26T05:20:39.588Z,79.07
2018-11-26T05:23:07.145Z,63.38
2018-11-26T05:25:34.515Z,65.15
2018-11-26T05:28:02.379Z,64.30
2018-11-26T05:30:30.040Z,76.92
2018-11-26T05:32:57.381Z,73.40
2018-11-26T05:35:24.707Z,67.90
2018-11-26T05:37:52.088Z,69.27
2018-11-26T05:40:19.421Z,56.95
2018-11-26T05:42:47.062Z,65.92
2018-11-26T05:45:14.947Z,58.05
2018-11-26T05:47:42.274Z,60.98
2018-11-26T05:50:10.545Z,60.55
2018-11-26T05:52:38.245Z,65.17
2018-11-26T05:55:05.991Z,63.65
2018-11-26T05:57:33.299Z,82.42
2018-11-26T06:00:00.629Z,69.37
2018-11-26T06:02:28.238Z,76.07
2018-11-26T06:04:55.778Z,59.70
2018-11-26T06:07:23.145Z,62.45
2018-11-26T06:09:50.603Z,63.68
2018-11-26T06:12:17.950Z,58.50
2018-11-26T06:14:45.569Z,64.30
2018-11-26T06:17:12.907Z,65.42
2018-11-26T06:19:40.284Z,55.85
2018-11-26T06:22:07.957Z,53.30
2018-11-26T06:24:35.504Z,53.85
2018-11-26T06:27:02.835Z,59.85
2018-11-26T06:29:30.374Z,57.83
2018-11-26T06:31:57.800Z,63.83
2018-11-26T06:34:25.661Z,62.58
2018-11-26T06:36:53.251Z,62.50
2018-11-26T06:39:20.968Z,50.63
2018-11-26T06:41:48.305Z,60.85
2018-11-26T06:44:15.655Z,63.08
2018-11-26T06:46:43.220Z,57.35
2018-11-26T06:49:11.002Z,61.80
2018-11-26T06:51:38.524Z,58.45
2018-11-26T06:54:06.350Z,58.55
2018-11-26T06:56:34.162Z,55.83
2018-11-26T06:59:01.500Z,62.43
2018-11-26T07:01:29.671Z,57.08
2018-11-26T07:03:57.038Z,60.40
2018-11-26T07:06:24.372Z,62.88
2018-11-26T07:08:52.027Z,53.98
2018-11-26T07:11:19.335Z,53.30
2018-11-26T07:13:46.727Z,59.75
2018-11-26T07:16:14.292Z,51.65
2018-11-26T07:18:41.863Z,49.08
2018-11-26T07:21:09.220Z,51.92
2018-11-26T07:23:37.046Z,48.42
2018-11-26T07:26:04.616Z,48.55
2018-11-26T07:28:32.161Z,48.13
2018-11-26T07:30:59.519Z,46.28
2018-11-26T07:33:27.353Z,46.73
2018-11-26T07:35:56.052Z,49.03
2018-11-26T07:38:23.619Z,50.15
2018-11-26T07:40:50.987Z,51.55
2018-11-26T07:43:18.342Z,49.55
2018-11-26T07:45:45.888Z,52.85
2018-11-26T07:48:13.290Z,47.80
2018-11-26T07:50:41.150Z,57.30
2018-11-26T07:53:09.217Z,52.23
2018-11-26T07:55:36.912Z,53.92
2018-11-26T07:58:04.480Z,49.98
2018-11-26T08:00:31.797Z,50.45
2018-11-26T08:02:59.175Z,47.85
2018-11-26T08:05:26.512Z,45.50
2018-11-26T08:07:53.865Z,42.48
2018-11-26T08:10:21.688Z,37.28
2018-11-26T08:12:49.543Z,46.33
2018-11-26T08:15:22.656Z,38.02
2018-11-26T08:17:49.918Z,46.33
2018-11-26T08:20:17.664Z,42.83
2018-11-26T08:22:45.250Z,46.88
2018-11-26T08:25:13.118Z,44.70
2018-11-26T08:27:40.947Z,42.95
2018-11-26T08:30:09.805Z,41.25
2018-11-26T08:32:39.577Z,44.45
2018-11-26T08:35:07.162Z,42.85
2018-11-26T08:37:35.396Z,38.35
2018-11-26T08:40:08.170Z,38.85
2018-11-26T08:43:44.823Z,38.17
2018-11-26T08:46:13.194Z,47.62
2018-11-26T08:48:46.495Z,38.40
2018-11-26T08:51:15.041Z,43.70
2018-11-26T08:53:42.454Z,46.05
2018-11-26T08:56:20.757Z,39.20
2018-11-26T08:58:48.210Z,43.73
2018-11-26T09:01:19.579Z,34.80
2018-11-26T09:03:55.705Z,40.58
2018-11-26T09:06:23.166Z,34.35
2018-11-26T09:08:50.547Z,39.38
2018-11-26T09:11:18.688Z,36.85
2018-11-26T09:13:46.568Z,37.63
2018-11-26T09:16:14.155Z,38.90
2018-11-26T09:18:41.748Z,34.43
2018-11-26T09:21:09.303Z,36.40
2018-11-26T09:23:36.896Z,41.20
2018-11-26T09:26:04.257Z,37.70
2018-11-26T09:28:32.762Z,34.95
2018-11-26T09:31:00.253Z,33.63
2018-11-26T09:33:28.176Z,41.70
2018-11-26T09:35:56.232Z,34.25
2018-11-26T09:38:23.659Z,33.78
2018-11-26T09:40:51.063Z,38.98
2018-11-26T09:43:18.414Z,40.88
2018-11-26T09:45:45.788Z,33.35
2018-11-26T09:48:13.200Z,40.38
2018-11-26T09:50:40.536Z,39.27
2018-11-26T09:53:08.011Z,42.27
2018-11-26T09:55:35.485Z,37.93
2018-11-26T09:58:03.089Z,44.00
2018-11-26T10:00:30.834Z,40.92
2018-11-26T10:02:58.816Z,42.65
2018-11-26T10:05:26.680Z,38.78
2018-11-26T10:07:54.359Z,43.50
2018-11-26T10:10:23.297Z,45.60
2018-11-26T10:12:50.787Z,39.18
2018-11-26T10:15:20.877Z,39.98
2018-11-26T10:17:48.474Z,46.80
2018-11-26T10:20:15.903Z,41.70
2018-11-26T10:22:43.657Z,37.98
2018-11-26T10:25:11.667Z,43.48
2018-11-26T10:27:39.300Z,41.60
2018-11-26T10:30:10.415Z,37.53
2018-11-26T10:32:38.308Z,37.53
2018-11-26T10:35:06.274Z,41.08
2018-11-26T10:37:33.860Z,40.73
2018-11-26T10:40:01.309Z,46.08
2018-11-26T10:42:28.649Z,39.53
2018-11-26T10:44:56.012Z,40.45
2018-11-26T10:47:23.400Z,41.30
2018-11-26T10:49:50.732Z,42.45
2018-11-26T10:52:18.388Z,43.68
2018-11-26T10:54:45.981Z,40.90
2018-11-26T10:57:13.383Z,43.17
2018-11-26T10:59:40.702Z,40.33
2018-11-26T11:02:13.454Z,39.13
2018-11-26T11:04:47.620Z,42.15
2018-11-26T11:07:08.891Z,43.33
2018-11-26T11:09:36.455Z,41.48
2018-11-26T11:12:03.849Z,39.50
2018-11-26T11:14:31.340Z,38.38
2018-11-26T11:16:58.801Z,38.95
2018-11-26T11:19:27.144Z,39.95
2018-11-26T11:21:54.605Z,43.55
2018-11-26T11:24:22.040Z,42.78
2018-11-26T11:26:49.455Z,38.85
2018-11-26T11:29:18.274Z,38.75
2018-11-26T11:31:48.510Z,38.28
2018-11-26T11:34:17.229Z,42.40
2018-11-26T11:36:46.283Z,43.50
2018-11-26T11:39:16.026Z,42.05
2018-11-26T11:41:43.864Z,38.60
2018-11-26T11:44:13.427Z,44.20
2018-11-26T11:46:42.505Z,41.92
2018-11-26T11:49:12.499Z,43.73
2018-11-26T11:51:40.741Z,42.10
2018-11-26T11:54:09.610Z,42.13
2018-11-26T11:56:38.430Z,41.23
2018-11-26T11:59:07.028Z,42.60
2018-11-26T12:01:37.357Z,46.80
2018-11-26T12:04:05.685Z,42.10
2018-11-26T12:06:33.163Z,48.73
2018-11-26T12:09:00.505Z,45.05
2018-11-26T12:11:28.079Z,45.70
2018-11-26T12:13:55.968Z,39.33
2018-11-26T12:16:23.316Z,46.95
2018-11-26T12:18:50.727Z,45.10
2018-11-26T12:21:18.639Z,46.53
2018-11-26T12:23:45.997Z,47.80
2018-11-26T12:26:13.352Z,46.65
2018-11-26T12:28:40.663Z,50.95
2018-11-26T12:31:08.009Z,49.48
2018-11-26T12:33:35.372Z,48.75
2018-11-26T12:36:02.724Z,46.00
2018-11-26T12:38:30.059Z,52.48
2018-11-26T12:40:57.672Z,48.38
2018-11-26T12:43:25.204Z,50.08
2018-11-26T12:45:52.526Z,48.40
2018-11-26T12:48:19.868Z,42.23
2018-11-26T12:50:48.112Z,45.43
2018-11-26T12:53:15.711Z,48.85
2018-11-26T12:55:43.031Z,45.83
2018-11-26T12:58:10.639Z,50.63
2018-11-26T13:00:38.126Z,43.30
2018-11-26T13:03:08.513Z,42.38
2018-11-26T13:05:35.967Z,45.35
2018-11-26T13:08:03.327Z,47.03
2018-11-26T13:10:30.666Z,50.67
2018-11-26T13:12:58.262Z,50.12
2018-11-26T13:15:26.915Z,40.73
2018-11-26T13:17:54.251Z,52.88
2018-11-26T13:20:22.716Z,43.58
2018-11-26T13:22:50.400Z,40.55
2018-11-26T13:25:18.330Z,46.35
2018-11-26T13:27:46.309Z,39.85
2018-11-26T13:30:14.796Z,48.02
2018-11-26T13:32:42.830Z,47.80
2018-11-26T13:35:10.863Z,38.38
2018-11-26T13:37:38.783Z,46.00
2018-11-26T13:40:08.410Z,41.55
2018-11-26T13:42:36.015Z,39.20
2018-11-26T13:45:03.682Z,48.83
2018-11-26T13:47:33.929Z,44.60
2018-11-26T13:50:01.838Z,46.83
2018-11-26T13:52:31.008Z,43.17
2018-11-26T13:54:58.499Z,39.58
2018-11-26T13:57:26.158Z,49.85
2018-11-26T13:59:54.937Z,34.53
2018-11-26T14:02:22.247Z,44.60
2018-11-26T14:04:49.688Z,42.58
2018-11-26T14:07:17.331Z,38.23
2018-11-26T14:09:45.041Z,37.48
2018-11-26T14:12:12.742Z,40.05
2018-11-26T14:14:40.137Z,39.63
2018-11-26T14:17:07.988Z,42.17
2018-11-26T14:19:35.286Z,35.13
2018-11-26T14:22:02.716Z,39.67
2018-11-26T14:24:30.332Z,41.00
2018-11-26T14:26:57.856Z,39.20
2018-11-26T14:29:25.770Z,35.73
2018-11-26T14:31:53.445Z,33.55
2018-11-26T14:34:20.753Z,38.42
2018-11-26T14:36:48.371Z,40.40
2018-11-26T14:39:15.764Z,44.05
2018-11-26T14:41:43.256Z,37.63
2018-11-26T14:44:10.800Z,38.85
2018-11-26T14:46:38.286Z,39.35
2018-11-26T14:49:05.717Z,32.23
2018-11-26T14:51:33.268Z,40.52
2018-11-26T14:54:00.783Z,37.65
2018-11-26T14:56:28.091Z,39.03
2018-11-26T14:58:55.435Z,37.10
2018-11-26T15:01:22.879Z,40.55
2018-11-26T15:03:50.385Z,36.60
2018-11-26T15:06:17.703Z,35.85
2018-11-26T15:08:45.043Z,40.75
2018-11-26T15:11:13.113Z,41.77
2018-11-26T15:13:40.529Z,36.68
2018-11-26T15:16:07.957Z,38.20
2018-11-26T15:18:35.535Z,33.70
2018-11-26T15:21:03.125Z,32.20
2018-11-26T15:23:30.439Z,34.18
2018-11-26T15:25:57.974Z,30.27
2018-11-26T15:31:09.578Z,34.73
2018-11-26T15:33:36.970Z,40.55
2018-11-26T15:36:04.479Z,33.83
2018-11-26T15:38:31.860Z,31.00
2018-11-26T15:40:59.439Z,36.00
2018-11-26T15:43:27.087Z,39.63
2018-11-26T15:45:54.485Z,30.95
2018-11-26T15:48:23.234Z,34.38
2018-11-26T15:50:53.033Z,34.58
2018-11-26T15:53:22.505Z,33.80
2018-11-26T15:55:53.442Z,31.60
2018-11-26T15:58:23.766Z,32.28
2018-11-26T16:00:51.681Z,29.80
2018-11-26T16:03:20.985Z,29.05
2018-11-26T16:05:51.359Z,25.30
2018-11-26T16:08:19.807Z,29.00
2018-11-26T16:10:49.397Z,28.05
2018-11-26T16:13:19.447Z,28.77
2018-11-26T16:15:48.682Z,29.25
2018-11-26T16:18:20.504Z,27.77
2018-11-26T16:20:48.394Z,29.87
2018-11-26T16:23:18.542Z,31.77
2018-11-26T16:25:51.254Z,33.08
2018-11-26T16:28:25.430Z,27.40
2018-11-26T16:30:55.701Z,30.10
2018-11-26T16:33:26.110Z,32.73
2018-11-26T16:35:56.734Z,31.95
2018-11-26T16:38:27.610Z,34.50
2018-11-26T16:40:57.984Z,30.82
2018-11-26T16:43:27.520Z,32.20
2018-11-26T16:45:58.568Z,31.60
2018-11-26T16:48:28.407Z,48.02
2018-11-26T16:50:56.757Z,33.18
2018-11-26T16:53:25.205Z,36.17
2018-11-26T16:55:55.815Z,34.30
2018-11-26T16:58:25.415Z,38.08
2018-11-26T17:00:56.266Z,34.25
2018-11-26T17:03:24.091Z,34.50
2018-11-26T17:05:57.941Z,31.62
2018-11-26T17:08:25.794Z,31.17
2018-11-26T17:10:53.104Z,32.08
2018-11-26T17:13:20.414Z,29.87
2018-11-26T17:15:47.793Z,31.35
2018-11-26T17:18:17.612Z,37.30
2018-11-26T17:20:45.689Z,30.70
2018-11-26T17:23:14.087Z,25.97
2018-11-26T17:25:41.807Z,31.27
2018-11-26T17:28:09.251Z,33.23
2018-11-26T17:30:37.182Z,31.45
2018-11-26T17:33:05.669Z,32.08
2018-11-26T17:35:34.155Z,33.18
2018-11-26T17:38:04.137Z,38.35
2018-11-26T17:40:34.335Z,31.02
2018-11-26T17:43:04.975Z,32.63
2018-11-26T17:45:32.462Z,32.33
2018-11-26T17:48:00.723Z,33.88
2018-11-26T17:50:36.958Z,35.05
2018-11-26T17:53:07.149Z,33.23
2018-11-26T17:55:41.579Z,38.02
2018-11-26T17:58:11.964Z,32.58
2018-11-26T18:00:39.758Z,33.08
2018-11-26T18:03:08.112Z,33.05
2018-11-26T18:05:36.214Z,36.50
2018-11-26T18:08:06.589Z,32.85
2018-11-26T18:10:34.988Z,30.15
2018-11-26T18:13:04.688Z,34.20
2018-11-26T18:15:33.863Z,30.25
2018-11-26T18:18:03.712Z,36.20
2018-11-26T18:20:34.056Z,33.90
2018-11-26T18:23:03.351Z,32.75
2018-11-26T18:25:33.513Z,34.20
2018-11-26T18:28:02.062Z,26.73
2018-11-26T18:30:36.712Z,37.83
2018-11-26T18:33:05.587Z,27.22
2018-11-26T18:35:33.613Z,37.10
2018-11-26T18:38:03.660Z,32.33
2018-11-26T18:40:31.592Z,30.55
2018-11-26T18:43:00.139Z,32.05
2018-11-26T18:45:27.763Z,31.50
2018-11-26T18:47:56.768Z,36.10
2018-11-26T18:50:24.292Z,34.15
2018-11-26T18:52:51.653Z,30.82
2018-11-26T18:55:19.228Z,33.30
2018-11-26T18:57:47.236Z,33.55
2018-11-26T19:00:29.393Z,30.50
2018-11-26T19:02:57.173Z,37.00
2018-11-26T19:05:25.208Z,34.23
2018-11-26T19:07:52.717Z,28.25
2018-11-26T19:10:20.891Z,31.37
2018-11-26T19:12:49.458Z,32.42
2018-11-26T19:15:19.740Z,31.82
2018-11-26T19:17:47.553Z,28.10
2018-11-26T19:20:14.948Z,24.90
2018-11-26T19:22:42.344Z,22.30
2018-11-26T19:25:11.358Z,27.20
2018-11-26T19:27:38.914Z,28.23
2018-11-26T19:30:08.522Z,26.50
2018-11-26T19:32:35.959Z,28.50
2018-11-26T19:35:03.420Z,25.45
2018-11-26T19:37:31.342Z,30.20
2018-11-26T19:39:59.055Z,26.07
2018-11-26T19:42:26.364Z,25.77
2018-11-26T19:44:53.893Z,26.93
2018-11-26T19:47:21.252Z,26.37
2018-11-26T19:49:48.719Z,23.60
2018-11-26T19:52:16.249Z,25.90
2018-11-26T19:54:44.666Z,23.25
2018-11-26T19:57:12.153Z,31.25
2018-11-26T19:59:40.448Z,30.37
2018-11-26T20:02:08.978Z,19.42
2018-11-26T20:04:40.106Z,23.40
2018-11-26T20:07:08.723Z,24.90
2018-11-26T20:09:38.001Z,23.35
2018-11-26T20:12:07.224Z,24.77
2018-11-26T20:14:35.193Z,23.92
2018-11-26T20:17:03.699Z,22.48
2018-11-26T20:19:31.898Z,20.25
2018-11-26T20:21:59.423Z,19.95
2018-11-26T20:24:28.084Z,22.27
2018-11-26T20:26:56.091Z,23.80
2018-11-26T20:29:23.877Z,22.20
2018-11-26T20:31:51.526Z,21.23
2018-11-26T20:34:19.813Z,22.42
2018-11-26T20:36:47.715Z,18.82
2018-11-26T20:39:15.084Z,21.10
2018-11-26T20:41:42.710Z,22.45
2018-11-26T20:44:13.340Z,23.83
2018-11-26T20:46:43.258Z,25.23
2018-11-26T20:49:10.640Z,26.35
2018-11-26T20:51:38.752Z,23.38
2018-11-26T20:54:06.409Z,24.25
2018-11-26T20:56:34.208Z,24.87
2018-11-26T20:59:02.063Z,27.17
2018-11-26T21:01:29.794Z,27.30
2018-11-26T21:03:57.230Z,29.52
2018-11-26T21:06:26.538Z,21.85
2018-11-26T21:08:54.870Z,25.02
2018-11-26T21:11:23.566Z,25.17
2018-11-26T21:13:52.355Z,24.47
2018-11-26T21:16:20.885Z,22.82
2018-11-26T21:18:50.807Z,25.12
2018-11-26T21:21:18.553Z,28.45
2018-11-26T21:23:45.849Z,23.90
2018-11-26T21:26:13.402Z,25.68
2018-11-26T21:28:40.530Z,25.20
2018-11-26T21:31:08.303Z,32.15
2018-11-26T21:33:35.625Z,42.50
2018-11-26T21:36:02.997Z,51.70
2018-11-26T21:38:30.474Z,27.40
2018-11-26T21:40:58.122Z,34.73
2018-11-26T21:43:25.480Z,31.62
2018-11-26T21:45:53.979Z,28.95
2018-11-26T21:48:21.333Z,35.50
2018-11-26T21:50:48.656Z,33.25
2018-11-26T21:53:16.034Z,32.80
2018-11-26T21:55:43.353Z,28.80
2018-11-26T21:58:11.142Z,52.65
2018-11-26T22:00:39.346Z,31.17
2018-11-26T22:03:07.945Z,25.12
2018-11-26T22:05:35.588Z,22.73
2018-11-26T22:08:02.898Z,33.35
2018-11-26T22:10:30.210Z,26.42
2018-11-26T22:12:57.545Z,23.25
2018-11-26T22:15:24.884Z,22.55
2018-11-26T22:17:52.463Z,19.50
2018-11-26T22:20:20.584Z,19.25
2018-11-26T22:22:47.915Z,17.73
2018-11-26T22:25:15.297Z,22.37
2018-11-26T22:27:42.853Z,16.77
2018-11-26T22:30:11.438Z,22.73
2018-11-26T22:32:38.766Z,17.50
2018-11-26T22:35:06.262Z,17.85
2018-11-26T22:37:33.840Z,16.25
2018-11-26T22:40:01.547Z,16.20
2018-11-26T22:42:28.932Z,15.60
2018-11-26T22:44:56.225Z,16.25
2018-11-26T22:47:23.570Z,15.30
2018-11-26T22:49:50.868Z,16.15
2018-11-26T22:52:18.174Z,16.75
2018-11-26T22:54:45.501Z,20.40
2018-11-26T22:57:13.051Z,17.35
2018-11-26T22:59:40.726Z,18.92
2018-11-26T23:02:08.023Z,15.43
2018-11-26T23:04:35.324Z,17.02
2018-11-26T23:07:02.640Z,15.78
2018-11-26T23:09:30.007Z,15.35
2018-11-26T23:11:57.341Z,17.55
2018-11-26T23:14:25.112Z,18.45
2018-11-26T23:16:52.686Z,19.23
2018-11-26T23:19:20.247Z,20.90
2018-11-26T23:21:47.793Z,15.40
2018-11-26T23:24:15.116Z,16.70
2018-11-26T23:26:42.700Z,15.83
2018-11-26T23:29:10.023Z,19.17
2018-11-26T23:31:37.337Z,17.82
2018-11-26T23:34:04.709Z,19.25
2018-11-26T23:36:32.280Z,20.40
2018-11-26T23:38:59.884Z,25.05
2018-11-26T23:41:27.941Z,26.02
2018-11-26T23:43:55.272Z,24.87
2018-11-26T23:46:22.602Z,26.35
2018-11-26T23:48:49.906Z,30.80
2018-11-26T23:51:17.242Z,24.72
2018-11-26T23:53:44.574Z,25.50
2018-11-26T23:56:11.916Z,31.42
2018-11-26T23:58:39.700Z,24.90
